Aeroporto :
LOGIN :

Iscrizione | Disclaimer

   EN    FR    IT 

 










Sommario :    VFR   VFR Marginale   IFR   IFR Intensivo   IFR Molto Intensivo
Visibilità : 
Base nubi : 
>= 8 km
>= 3000ft
5 / 8 km
1000 / 3000 ft
1500m / 5 km
500 / 1000 ft
800 / 1500m
200 / 500 ft
< 800m
< 200 ft
Simboli :   Temporali  Nebbia  Neve Forte  Precipitazioni Forti  Vento > 20 kt
SIGMETs :   Varie  Temporali  Ghiacco  Turbolenza  Onda orograficha  Ceneri Vulcaniche






- Altitudine del aeroporto : 257 ft
- Codice IATA : MAN


EGCC - Manchester

ULTIMO METAR :
  • 151450Z AUTO VRB02KT 9999 -RA NCD 19/12 Q1007

METARs OBSOLETI :
  • 151420Z 13003KT 070V190 9999 FEW049 19/13 Q1008
  • 151350Z 16003KT 110V200 9999 -SHRA FEW044 19/13 Q1008 TEMPO RA
  • 151320Z 14003KT 100V170 9999 FEW042 20/12 Q1008 TEMPO RA
  • 151250Z AUTO 16003KT 100V250 9999 FEW040 20/12 Q1008 TEMPO RA
  • 151220Z VRB04KT 9999 FEW038 20/12 Q1008
  • 151150Z 14004KT 050V200 9999 FEW038 21/12 Q1008
  • 151120Z 13004KT 060V190 9999 SCT036 21/12 Q1009
  • 151050Z VRB03KT 9999 SCT035 20/12 Q1009
  • 151020Z 18005KT 100V230 9999 SCT033 20/13 Q1009

TAF AMD TAF EGCC
Valido dal 15 a 12 ore il 16 a 18 ore UTC


151225Z 1512/1618 VRB03KT 9999 SCT025
BECMG 1512/1515 16010KT
TEMPO 1515/1606 7000 RA BKN014
BECMG 1517/1520 02008KT
PROB40
TEMPO 1521/1606 3000 +RA +SHRA BKN009 BKN015CB
PROB30
TEMPO 1606/1609 8000 -RADZ BKN004
PROB30
TEMPO 1609/1618 7000 SHRA
ATIS : +44 161 499 2324



MetMap, La meteo Aeronautica in un colpo d'occhio ! - Copyright ORBIFLY Dicembre 2007 - Disclaimer

ORBIFLY MET'MAP TEAM :

Programmazione e sviluppo : Alexandra Zaïnal
Concezione : Baudouin d'Aumeries
Supporto tecnico e logistico : Manuel Goepfert
Aiuto : Marc-Olivier Méhu
Aiuto per la traduzione : Arnaldo La Scala




FONTI E CREDITI :

   NOAA